Time;durP1;ratioP1;P1;durP2;ratioP2;P2;SDS_P1;SDS_P2;PMS_P1;PMS_P2;Temp;Humidity;BMP_temperature;BMP_pressure;BME280_temperature;BME280_humidity;BME280_pressure;Samples;Min_cycle;Max_cycle;Signal;HPM_P1;HPM_P2
2021/12/15 00:01:07;;;;;;;40.92;22.35;;;;;;;2.24;100.00;101538.56;6272749;22;20048;-88
2021/12/15 00:03:37;;;;;;;45.97;24.00;;;;;;;2.05;100.00;101532.66;6272485;22;20000;-89
2021/12/15 00:06:11;;;;;;;45.72;23.88;;;;;;;2.06;100.00;101539.53;6242033;23;20562;-89
2021/12/15 00:08:37;;;;;;;44.75;23.77;;;;;;;2.04;100.00;101536.19;6266696;23;20023;-89
2021/12/15 00:11:06;;;;;;;50.30;24.65;;;;;;;1.99;100.00;101548.66;6244147;23;20012;-90
2021/12/15 00:13:33;;;;;;;41.22;22.27;;;;;;;2.38;100.00;101549.13;6271995;23;19992;-91
2021/12/15 00:15:59;;;;;;;40.63;21.35;;;;;;;2.39;100.00;101547.31;6221237;23;20038;-91
2021/12/15 00:18:25;;;;;;;39.10;21.55;;;;;;;2.58;100.00;101555.84;6273228;22;19988;-89
2021/12/15 00:20:53;;;;;;;35.70;19.42;;;;;;;2.60;100.00;101551.38;6273155;23;19996;-90
2021/12/15 00:23:19;;;;;;;39.22;19.77;;;;;;;2.59;100.00;101547.06;6274069;22;20004;-89
2021/12/15 00:25:47;;;;;;;36.47;19.52;;;;;;;2.34;100.00;101544.97;6273044;23;20066;-90
2021/12/15 00:28:16;;;;;;;37.50;20.38;;;;;;;2.30;100.00;101538.22;6272858;23;20008;-89
2021/12/15 00:30:42;;;;;;;35.83;19.83;;;;;;;2.42;100.00;101545.38;6241717;23;20012;-90
2021/12/15 00:33:09;;;;;;;32.10;18.27;;;;;;;2.45;100.00;101534.75;6268418;23;20016;-89
2021/12/15 00:35:36;;;;;;;38.05;19.90;;;;;;;2.58;100.00;101538.38;6243805;23;20011;-88
2021/12/15 00:38:03;;;;;;;33.28;18.83;;;;;;;2.59;100.00;101539.19;6272002;23;20000;-90
2021/12/15 00:40:31;;;;;;;33.60;19.17;;;;;;;2.52;100.00;101533.47;6245127;23;20048;-90
2021/12/15 00:42:58;;;;;;;38.00;19.70;;;;;;;2.44;100.00;101530.47;6272624;23;20008;-91
2021/12/15 00:45:26;;;;;;;34.47;18.48;;;;;;;2.53;100.00;101529.94;6239221;23;20071;-91
2021/12/15 00:47:53;;;;;;;37.67;19.17;;;;;;;2.62;100.00;101527.75;6230584;23;20012;-90
2021/12/15 00:50:25;;;;;;;35.65;18.70;;;;;;;2.66;100.00;101539.69;6228599;23;20016;-90
2021/12/15 00:52:51;;;;;;;37.75;19.15;;;;;;;2.69;100.00;101534.28;6227160;23;20474;-90
2021/12/15 00:55:20;;;;;;;37.75;20.42;;;;;;;2.77;100.00;101534.72;6253544;23;20009;-91
2021/12/15 00:57:46;;;;;;;38.25;18.98;;;;;;;2.77;100.00;101538.19;6253566;23;20027;-88
2021/12/15 01:00:21;;;;;;;35.33;19.35;;;;;;;2.76;100.00;101546.09;6226156;23;20008;-90
2021/12/15 01:02:49;;;;;;;33.20;19.13;;;;;;;2.77;100.00;101547.78;6226335;23;20012;-89
2021/12/15 01:05:19;;;;;;;35.83;18.60;;;;;;;2.58;100.00;101548.84;6223880;23;20005;-89
2021/12/15 01:07:49;;;;;;;33.00;18.73;;;;;;;2.64;100.00;101550.28;6248407;23;20018;-89
2021/12/15 01:10:21;;;;;;;36.47;17.80;;;;;;;2.52;100.00;101554.41;6221804;23;20019;-90
2021/12/15 01:21:04;;;;;;;35.63;19.67;;;;;;;2.54;100.00;101554.34;6250815;23;20008;-92
2021/12/15 01:23:31;;;;;;;33.55;19.85;;;;;;;2.69;100.00;101560.47;6251722;23;20038;-90
2021/12/15 01:26:08;;;;;;;38.50;19.50;;;;;;;2.73;100.00;101551.50;6227023;23;20023;-90
2021/12/15 01:28:37;;;;;;;36.08;18.38;;;;;;;2.72;100.00;101560.31;6252905;23;20004;-92
2021/12/15 01:31:06;;;;;;;35.47;19.00;;;;;;;2.87;100.00;101560.28;6250690;23;20023;-90
2021/12/15 01:33:34;;;;;;;36.22;18.77;;;;;;;2.87;100.00;101562.06;6223445;23;20012;-90
2021/12/15 01:36:01;;;;;;;33.03;18.48;;;;;;;2.91;100.00;101569.66;6223939;23;20019;-92
2021/12/15 01:38:32;;;;;;;39.05;19.33;;;;;;;2.91;100.00;101568.81;6223970;23;20016;-91
2021/12/15 01:41:00;;;;;;;26.13;15.10;;;;;;;2.43;100.00;101568.00;6224133;23;20012;-88
2021/12/15 01:43:47;;;;;;;45.38;22.58;;;;;;;2.53;100.00;101560.47;6251274;23;20004;-90
2021/12/15 01:49:07;;;;;;;37.67;20.80;;;;;;;2.96;100.00;101559.75;6223858;23;20012;-91
2021/12/15 01:51:32;;;;;;;32.72;19.02;;;;;;;2.95;100.00;101558.03;6224241;23;20066;-91
2021/12/15 01:53:58;;;;;;;34.65;18.83;;;;;;;3.10;100.00;101558.94;6252497;23;20008;-91
2021/12/15 01:56:24;;;;;;;32.97;18.88;;;;;;;3.01;100.00;101556.88;6251351;23;20004;-90
2021/12/15 01:58:50;;;;;;;31.58;18.25;;;;;;;3.15;100.00;101562.13;6224795;23;20027;-91
2021/12/15 02:01:16;;;;;;;30.67;17.52;;;;;;;3.08;100.00;101573.94;6228886;23;20067;-91
2021/12/15 02:03:42;;;;;;;31.38;18.13;;;;;;;3.23;100.00;101578.25;6229835;23;20019;-90
2021/12/15 02:06:12;;;;;;;34.97;18.70;;;;;;;3.12;100.00;101583.25;6255291;23;20008;-91
2021/12/15 02:08:38;;;;;;;32.25;18.98;;;;;;;3.15;100.00;101584.88;6223848;23;20091;-92
2021/12/15 02:11:09;;;;;;;34.05;20.23;;;;;;;2.94;100.00;101586.94;6222910;23;20016;-90
2021/12/15 02:13:35;;;;;;;36.85;20.13;;;;;;;2.70;100.00;101588.31;6223005;23;20015;-89
2021/12/15 02:16:03;;;;;;;36.63;20.25;;;;;;;2.56;100.00;101582.09;6223712;23;20012;-89
2021/12/15 02:18:33;;;;;;;40.00;20.80;;;;;;;2.73;100.00;101590.78;6223595;23;20020;-88
2021/12/15 02:24:22;;;;;;;36.85;20.58;;;;;;;2.83;100.00;101574.47;6238104;23;20123;-88
2021/12/15 02:26:52;;;;;;;32.35;19.30;;;;;;;2.66;100.00;101576.34;6247649;22;19984;-88
2021/12/15 02:29:20;;;;;;;33.95;19.17;;;;;;;2.75;100.00;101576.66;6247568;23;20016;-88
2021/12/15 02:39:38;;;;;;;33.38;18.30;;;;;;;2.80;100.00;101566.78;6250131;23;20036;-91
2021/12/15 02:42:04;;;;;;;34.83;19.63;;;;;;;2.78;100.00;101570.44;6197917;23;20457;-91
2021/12/15 02:44:30;;;;;;;34.00;18.88;;;;;;;2.72;100.00;101560.31;6222706;23;20047;-90
2021/12/15 02:46:56;;;;;;;31.27;18.50;;;;;;;2.83;100.00;101563.16;6250141;23;20016;-90
2021/12/15 02:49:27;;;;;;;33.55;18.17;;;;;;;2.85;100.00;101566.53;6250280;23;20012;-91
2021/12/15 02:51:56;;;;;;;33.70;18.75;;;;;;;2.87;100.00;101569.91;6251444;23;20054;-91
2021/12/15 02:54:24;;;;;;;35.30;19.95;;;;;;;2.80;100.00;101568.56;6250914;23;20058;-91
2021/12/15 02:56:53;;;;;;;35.35;19.63;;;;;;;2.78;100.00;101565.19;6224960;23;20004;-91
2021/12/15 02:59:32;;;;;;;32.75;18.90;;;;;;;2.66;100.00;101561.47;6253467;23;20054;-90
2021/12/15 03:02:11;;;;;;;32.10;18.30;;;;;;;2.77;100.00;101568.72;6253674;23;20035;-91
2021/12/15 03:07:17;;;;;;;28.13;15.85;;;;;;;2.33;100.00;101568.59;6256125;23;20016;-90
2021/12/15 03:18:12;;;;;;;29.98;15.52;;;;;;;2.50;100.00;101577.22;6226838;23;20063;-91
2021/12/15 03:20:52;;;;;;;26.98;14.45;;;;;;;2.43;100.00;101575.84;6252800;23;20004;-87
2021/12/15 03:23:24;;;;;;;24.63;13.60;;;;;;;2.27;100.00;101585.47;6224150;23;20374;-92
2021/12/15 03:25:51;;;;;;;26.27;14.80;;;;;;;2.26;100.00;101586.38;6197673;23;20343;-91
2021/12/15 03:34:36;;;;;;;26.20;13.68;;;;;;;2.54;100.00;101599.66;6205742;23;20012;-88
2021/12/15 03:39:33;;;;;;;25.40;14.10;;;;;;;2.55;100.00;101601.31;6233181;22;20004;-91
2021/12/15 03:42:04;;;;;;;29.70;14.60;;;;;;;2.28;100.00;101602.00;6242894;23;20012;-91
2021/12/15 03:44:33;;;;;;;25.35;14.10;;;;;;;2.06;100.00;101602.28;6252198;23;20067;-91
2021/12/15 03:47:01;;;;;;;23.75;12.70;;;;;;;2.18;100.00;101601.66;6228568;23;20026;-92
2021/12/15 03:49:27;;;;;;;24.17;12.90;;;;;;;2.01;100.00;101604.31;6227867;23;20012;-91
2021/12/15 03:51:52;;;;;;;25.70;13.15;;;;;;;2.14;100.00;101600.13;6253838;23;20095;-90
2021/12/15 03:54:19;;;;;;;24.67;13.35;;;;;;;2.20;100.00;101605.03;6255210;23;20015;-90
2021/12/15 03:56:48;;;;;;;24.38;12.82;;;;;;;2.18;100.00;101604.28;6229383;23;20012;-91
2021/12/15 03:59:13;;;;;;;23.85;12.40;;;;;;;2.42;100.00;101605.53;6226017;23;20008;-91
2021/12/15 04:01:39;;;;;;;25.52;12.82;;;;;;;2.45;100.00;101599.31;6262826;23;20030;-90
2021/12/15 04:04:06;;;;;;;21.63;12.43;;;;;;;2.48;100.00;101604.38;6261762;23;20048;-89
2021/12/15 04:06:35;;;;;;;26.90;11.77;;;;;;;2.70;100.00;101609.28;6233227;23;20455;-90
2021/12/15 04:09:06;;;;;;;20.70;11.07;;;;;;;2.75;100.00;101608.06;6258295;23;20012;-90
2021/12/15 04:11:34;;;;;;;22.75;10.32;;;;;;;2.63;100.00;101619.22;6240765;23;20019;-89
2021/12/15 04:14:11;;;;;;;21.48;10.55;;;;;;;2.54;100.00;101614.50;6267084;23;20019;-90
2021/12/15 04:16:46;;;;;;;22.23;11.93;;;;;;;2.55;100.00;101617.03;6257314;23;20301;-90
2021/12/15 04:19:17;;;;;;;17.88;10.32;;;;;;;2.47;100.00;101619.25;6253468;23;20083;-89
2021/12/15 04:21:43;;;;;;;19.15;10.90;;;;;;;2.38;100.00;101624.13;6199275;23;20047;-90
2021/12/15 04:24:12;;;;;;;21.73;10.98;;;;;;;2.34;100.00;101623.44;6223048;23;20012;-91
2021/12/15 04:26:41;;;;;;;18.30;10.75;;;;;;;2.60;100.00;101630.72;6249660;23;20058;-91
2021/12/15 04:29:07;;;;;;;19.30;11.30;;;;;;;2.11;100.00;101626.44;6222750;23;20009;-89
2021/12/15 04:31:36;;;;;;;21.30;11.18;;;;;;;1.90;100.00;101627.56;6247753;23;20066;-89
2021/12/15 04:34:05;;;;;;;23.35;12.30;;;;;;;1.87;100.00;101632.94;6219972;23;20455;-88
2021/12/15 04:36:36;;;;;;;21.20;11.95;;;;;;;2.02;100.00;101630.38;6219865;23;20008;-89
2021/12/15 04:39:07;;;;;;;29.05;12.45;;;;;;;2.04;100.00;101633.78;6248108;23;20026;-90
2021/12/15 04:41:33;;;;;;;22.90;11.68;;;;;;;2.24;100.00;101637.09;6246237;23;20435;-90
2021/12/15 04:44:01;;;;;;;20.45;11.10;;;;;;;2.41;100.00;101645.75;6246413;23;20087;-90
2021/12/15 04:46:31;;;;;;;21.50;11.23;;;;;;;2.51;100.00;101640.84;6220063;23;20508;-89
2021/12/15 04:48:56;;;;;;;19.63;11.25;;;;;;;2.62;100.00;101638.47;6246494;23;20019;-89
2021/12/15 04:51:23;;;;;;;19.85;10.65;;;;;;;2.68;100.00;101638.16;6219692;23;20008;-89
2021/12/15 04:53:52;;;;;;;22.73;10.75;;;;;;;2.63;100.00;101644.56;6246751;23;20035;-89
2021/12/15 04:56:21;;;;;;;21.70;11.60;;;;;;;2.17;100.00;101648.81;6221436;23;20087;-89
2021/12/15 04:58:48;;;;;;;22.38;12.13;;;;;;;1.86;100.00;101657.38;6247521;23;20009;-89
2021/12/15 05:01:15;;;;;;;19.38;11.43;;;;;;;1.95;100.00;101651.72;6246490;23;20090;-88
2021/12/15 05:03:41;;;;;;;22.60;11.80;;;;;;;2.21;100.00;101658.19;6247674;23;20016;-89
2021/12/15 05:06:08;;;;;;;22.13;11.63;;;;;;;2.37;100.00;101645.97;6222206;23;20008;-90
2021/12/15 05:08:36;;;;;;;19.08;11.05;;;;;;;2.39;100.00;101657.19;6221959;23;20016;-89
2021/12/15 05:11:03;;;;;;;19.55;10.57;;;;;;;2.44;100.00;101658.66;6222301;23;20083;-91
2021/12/15 05:13:29;;;;;;;19.30;10.85;;;;;;;2.26;100.00;101666.63;6249695;23;20030;-90
2021/12/15 05:15:55;;;;;;;21.45;11.93;;;;;;;1.99;100.00;101663.66;6249464;23;20039;-89
2021/12/15 05:18:21;;;;;;;20.92;12.13;;;;;;;1.83;100.00;101652.31;6249422;23;20074;-86
2021/12/15 05:20:50;;;;;;;20.38;11.88;;;;;;;1.81;100.00;101656.78;6197314;23;20086;-89
2021/12/15 05:23:17;;;;;;;19.73;11.35;;;;;;;1.92;100.00;101662.31;6248569;23;20023;-89
2021/12/15 05:25:43;;;;;;;24.05;11.82;;;;;;;2.00;100.00;101665.38;6248250;23;20008;-89
2021/12/15 05:28:09;;;;;;;23.05;11.80;;;;;;;2.20;100.00;101666.94;6248308;23;20063;-91
2021/12/15 05:30:35;;;;;;;24.70;12.80;;;;;;;1.92;100.00;101667.56;6221769;23;20004;-89
2021/12/15 05:33:01;;;;;;;24.90;13.05;;;;;;;1.98;100.00;101678.53;6248349;23;20039;-89
2021/12/15 05:35:28;;;;;;;22.30;12.23;;;;;;;2.14;100.00;101673.34;6222730;23;20000;-92
2021/12/15 05:37:59;;;;;;;21.95;12.45;;;;;;;2.04;100.00;101674.75;6198202;23;20086;-89
2021/12/15 05:40:26;;;;;;;26.58;14.52;;;;;;;1.87;100.00;101675.63;6249372;23;20455;-88
2021/12/15 05:42:56;;;;;;;29.70;14.70;;;;;;;1.64;100.00;101677.69;6249830;23;20012;-90
2021/12/15 05:45:24;;;;;;;28.13;14.18;;;;;;;1.59;100.00;101679.72;6250093;23;20011;-89
2021/12/15 05:47:50;;;;;;;29.00;14.07;;;;;;;1.70;100.00;101687.84;6221230;23;20027;-88
2021/12/15 05:50:15;;;;;;;22.83;12.90;;;;;;;1.90;100.00;101690.28;6248453;23;20008;-90
2021/12/15 05:52:42;;;;;;;25.13;14.35;;;;;;;1.85;100.00;101689.69;6250599;23;20039;-90
2021/12/15 05:55:11;;;;;;;26.85;13.73;;;;;;;2.03;100.00;101686.97;6219943;23;20103;-89
2021/12/15 05:57:37;;;;;;;23.38;13.75;;;;;;;1.83;100.00;101699.38;6247284;23;20093;-86
2021/12/15 06:00:07;;;;;;;23.80;13.18;;;;;;;1.98;100.00;101704.69;6248249;23;20012;-88
2021/12/15 06:02:37;;;;;;;29.48;14.43;;;;;;;2.01;100.00;101714.97;6247431;23;20016;-89
2021/12/15 06:05:06;;;;;;;28.92;14.05;;;;;;;1.65;100.00;101706.38;6222869;23;20034;-90
2021/12/15 06:07:32;;;;;;;32.67;16.20;;;;;;;1.52;100.00;101706.13;6219478;23;20012;-86
2021/12/15 06:09:58;;;;;;;29.65;14.63;;;;;;;1.22;100.00;101712.84;6221654;23;20015;-89
2021/12/15 06:12:23;;;;;;;28.77;15.85;;;;;;;1.03;100.00;101701.56;6252651;23;20387;-89
2021/12/15 06:14:49;;;;;;;31.30;15.77;;;;;;;0.81;100.00;101716.56;6197097;23;20320;-89
2021/12/15 06:17:14;;;;;;;34.05;16.15;;;;;;;0.94;100.00;101710.69;6249220;23;20454;-88
2021/12/15 06:19:41;;;;;;;33.13;15.38;;;;;;;0.79;100.00;101714.03;6248684;23;20012;-88
2021/12/15 06:22:09;;;;;;;25.55;14.55;;;;;;;0.77;100.00;101715.00;6248346;23;20001;-86
2021/12/15 06:24:36;;;;;;;30.73;15.20;;;;;;;0.82;100.00;101719.09;6253134;23;20008;-89
2021/12/15 06:27:09;;;;;;;29.02;14.65;;;;;;;0.79;100.00;101708.81;6252174;23;20012;-91
2021/12/15 06:29:36;;;;;;;27.92;14.30;;;;;;;0.79;100.00;101713.19;6248474;23;20012;-88
2021/12/15 06:32:04;;;;;;;31.90;14.65;;;;;;;0.76;100.00;101713.31;6250465;23;20008;-90
2021/12/15 06:34:30;;;;;;;31.73;15.05;;;;;;;0.68;100.00;101718.03;6252004;23;20019;-92
2021/12/15 06:36:56;;;;;;;27.35;14.88;;;;;;;0.70;100.00;101704.00;6252420;23;20012;-90
2021/12/15 06:39:23;;;;;;;30.25;15.77;;;;;;;0.71;100.00;101708.31;6253549;23;20015;-92
2021/12/15 06:41:52;;;;;;;26.23;15.50;;;;;;;0.85;100.00;101707.66;6254845;23;20087;-92
2021/12/15 06:44:20;;;;;;;28.67;14.70;;;;;;;1.16;100.00;101712.31;6262480;23;20028;-93
2021/12/15 07:00:41;;;;;;;32.13;16.98;;;;;;;1.47;100.00;101733.41;6218865;23;20016;-87
2021/12/15 07:03:07;;;;;;;41.63;17.48;;;;;;;1.74;100.00;101731.19;6220994;23;20048;-87
2021/12/15 07:05:34;;;;;;;32.90;16.92;;;;;;;1.69;100.00;101728.78;6221073;23;20471;-87
2021/12/15 07:08:03;;;;;;;34.92;16.30;;;;;;;1.84;100.00;101737.66;6220651;23;20008;-88
2021/12/15 07:10:32;;;;;;;32.05;15.85;;;;;;;2.11;100.00;101746.72;6247270;23;20008;-84
2021/12/15 07:12:59;;;;;;;32.35;16.20;;;;;;;2.08;100.00;101742.50;6249443;23;20396;-84
2021/12/15 07:15:25;;;;;;;31.70;15.18;;;;;;;2.26;100.00;101747.69;6248127;23;20028;-82
2021/12/15 07:17:53;;;;;;;31.00;16.38;;;;;;;2.02;100.00;101760.28;6248611;23;20067;-85
2021/12/15 07:22:59;;;;;;;29.27;15.18;;;;;;;2.16;100.00;101763.00;6250750;23;20014;-85
2021/12/15 07:25:27;;;;;;;29.88;14.15;;;;;;;2.52;100.00;101773.34;6249799;23;20343;-84
2021/12/15 07:27:54;;;;;;;27.65;14.82;;;;;;;2.67;100.00;101761.22;6224932;23;20034;-87
2021/12/15 07:30:20;;;;;;;30.52;15.60;;;;;;;2.82;100.00;101770.88;6250717;23;20459;-85
2021/12/15 07:32:52;;;;;;;25.25;13.10;;;;;;;2.97;100.00;101781.41;6229267;23;20013;-84
2021/12/15 07:35:19;;;;;;;26.90;13.93;;;;;;;2.76;100.00;101781.69;6257711;23;20513;-84
2021/12/15 07:37:46;;;;;;;29.23;14.40;;;;;;;3.06;100.00;101780.88;6224219;23;20062;-84
2021/12/15 07:40:20;;;;;;;24.60;14.02;;;;;;;3.38;100.00;101786.97;6250620;23;20452;-85
2021/12/15 07:42:57;;;;;;;29.30;13.93;;;;;;;3.51;100.00;101782.72;6251049;23;20443;-88
2021/12/15 07:45:26;;;;;;;25.55;13.32;;;;;;;3.50;99.79;101799.41;6222100;23;20019;-87
2021/12/15 07:47:57;;;;;;;24.98;13.98;;;;;;;3.40;100.00;101789.50;6248796;23;20450;-87
2021/12/15 07:50:25;;;;;;;26.73;13.75;;;;;;;3.21;100.00;101792.31;6220368;23;20008;-84
2021/12/15 07:52:51;;;;;;;24.98;14.93;;;;;;;3.02;100.00;101797.69;6248037;23;20019;-84
2021/12/15 07:55:18;;;;;;;27.38;15.23;;;;;;;2.49;100.00;101799.66;6247805;23;20013;-88
2021/12/15 07:57:47;;;;;;;30.88;15.70;;;;;;;2.69;100.00;101802.09;6248576;23;20362;-86
2021/12/15 08:00:15;;;;;;;27.63;14.27;;;;;;;2.46;100.00;101805.06;6248837;23;20011;-85
2021/12/15 08:02:41;;;;;;;36.17;14.52;;;;;;;2.46;100.00;101815.53;6222361;23;20016;-88
2021/12/15 08:05:08;;;;;;;36.92;17.25;;;;;;;2.34;100.00;101809.16;6227383;23;20419;-87
2021/12/15 08:07:33;;;;;;;36.30;17.05;;;;;;;2.21;100.00;101812.47;6256166;23;20050;-85
2021/12/15 08:09:59;;;;;;;34.55;17.10;;;;;;;2.14;100.00;101809.31;6253748;23;20008;-87
2021/12/15 08:12:27;;;;;;;33.33;16.05;;;;;;;2.08;100.00;101804.41;6253986;23;20008;-90
2021/12/15 08:14:58;;;;;;;48.80;16.85;;;;;;;2.02;100.00;101816.00;6227188;23;20346;-88
2021/12/15 08:17:23;;;;;;;37.67;16.63;;;;;;;1.98;100.00;101817.09;6227964;23;20047;-89
2021/12/15 08:19:49;;;;;;;47.30;15.27;;;;;;;2.07;100.00;101810.56;6259606;23;20004;-88
2021/12/15 08:22:14;;;;;;;33.00;15.00;;;;;;;2.18;100.00;101817.88;6254166;23;20004;-85
2021/12/15 08:24:40;;;;;;;53.97;15.45;;;;;;;2.25;100.00;101817.50;6252871;23;20009;-91
2021/12/15 08:27:05;;;;;;;39.38;14.68;;;;;;;2.46;100.00;101816.38;6250333;23;20016;-89
2021/12/15 08:29:33;;;;;;;109.32;20.08;;;;;;;2.46;100.00;101821.63;6252405;23;20011;-89
2021/12/15 08:31:58;;;;;;;38.38;15.85;;;;;;;2.58;100.00;101826.22;6252246;23;20048;-90
2021/12/15 08:34:27;;;;;;;31.30;17.13;;;;;;;2.90;100.00;101826.31;6255306;23;20016;-90
2021/12/15 08:36:54;;;;;;;37.33;20.42;;;;;;;2.80;100.00;101830.34;6232656;23;20065;-91
2021/12/15 08:39:23;;;;;;;63.80;24.10;;;;;;;2.63;100.00;101822.50;6262679;23;20012;-92
2021/12/15 08:41:49;;;;;;;44.55;24.10;;;;;;;2.48;100.00;101825.00;6264363;23;20008;-89
2021/12/15 08:44:15;;;;;;;70.32;29.77;;;;;;;2.45;100.00;101830.38;6262452;22;20020;-87
2021/12/15 08:46:50;;;;;;;78.45;32.13;;;;;;;2.57;100.00;101826.31;6268984;22;20011;-87
2021/12/15 08:49:21;;;;;;;73.75;30.90;;;;;;;2.63;100.00;101832.97;6262905;22;20049;-88
2021/12/15 08:51:56;;;;;;;72.03;34.20;;;;;;;2.70;100.00;101829.97;6293698;22;20008;-87
2021/12/15 08:54:39;;;;;;;70.88;36.10;;;;;;;2.81;100.00;101837.28;6268490;22;20500;-90
2021/12/15 08:57:05;;;;;;;63.58;33.72;;;;;;;2.97;100.00;101838.16;6294250;22;20011;-89
2021/12/15 08:59:37;;;;;;;84.65;39.00;;;;;;;2.96;100.00;101845.16;6234575;22;20041;-91
2021/12/15 09:02:06;;;;;;;88.70;39.40;;;;;;;2.85;100.00;101838.81;6267872;22;20024;-90
2021/12/15 09:04:34;;;;;;;92.68;39.67;;;;;;;2.84;100.00;101842.34;6272060;22;20012;-89
2021/12/15 09:07:07;;;;;;;94.95;40.05;;;;;;;2.84;100.00;101848.44;6273774;22;20016;-88
2021/12/15 09:09:40;;;;;;;80.15;40.63;;;;;;;3.02;100.00;101846.59;6295559;22;20008;-90
2021/12/15 09:12:23;;;;;;;76.55;42.10;;;;;;;3.09;100.00;101850.59;6247402;22;20016;-87
2021/12/15 09:14:56;;;;;;;83.47;41.80;;;;;;;2.98;100.00;101845.09;6299989;22;20008;-87
2021/12/15 09:17:21;;;;;;;73.68;41.90;;;;;;;3.18;100.00;101852.72;6293159;22;20016;-92
2021/12/15 09:20:25;;;;;;;83.00;43.00;;;;;;;3.10;100.00;101861.00;6297572;22;20022;-87
2021/12/15 09:22:51;;;;;;;84.75;44.13;;;;;;;3.12;100.00;101868.75;6297871;22;20008;-92
2021/12/15 09:25:44;;;;;;;96.60;45.80;;;;;;;3.34;100.00;101868.47;6273146;22;20011;-87
2021/12/15 09:28:13;;;;;;;86.18;45.33;;;;;;;3.37;100.00;101866.53;6289395;22;20034;-89
2021/12/15 09:31:01;;;;;;;87.57;47.55;;;;;;;3.52;100.00;101876.16;6269732;22;20076;-91
2021/12/15 09:33:51;;;;;;;86.32;47.30;;;;;;;3.41;100.00;101880.31;6249730;22;20012;-88
2021/12/15 09:36:19;;;;;;;83.75;49.42;;;;;;;3.29;100.00;101871.31;6268362;22;20039;-92
2021/12/15 09:38:48;;;;;;;81.53;48.45;;;;;;;3.28;100.00;101874.03;6260631;22;20062;-92
2021/12/15 09:41:18;;;;;;;91.57;50.80;;;;;;;3.25;100.00;101877.63;6290649;22;20007;-93
2021/12/15 09:43:56;;;;;;;100.22;51.92;;;;;;;3.34;100.00;101871.94;6298737;22;20011;-88
2021/12/15 10:04:05;;;;;;;94.82;54.97;;;;;;;3.74;100.00;101867.13;6234283;22;20046;-92
2021/12/15 10:19:57;;;;;;;111.53;55.95;;;;;;;3.77;100.00;101861.69;6265045;23;20038;-89
2021/12/15 10:22:51;;;;;;;97.05;55.75;;;;;;;3.90;100.00;101867.94;6235015;23;20023;-86
2021/12/15 10:25:43;;;;;;;106.35;54.50;;;;;;;3.97;100.00;101858.81;6231894;23;20008;-90
2021/12/15 10:28:18;;;;;;;104.10;55.00;;;;;;;3.95;100.00;101855.41;6263595;23;20012;-88
2021/12/15 10:31:05;;;;;;;95.28;55.30;;;;;;;4.04;100.00;101865.41;6263704;23;20067;-88
2021/12/15 10:33:41;;;;;;;108.28;53.95;;;;;;;3.95;100.00;101865.91;6238247;23;20086;-89
2021/12/15 10:36:16;;;;;;;94.05;53.00;;;;;;;4.05;100.00;101857.41;6241614;23;20016;-90
2021/12/15 10:38:58;;;;;;;91.30;52.42;;;;;;;4.10;100.00;101860.63;6240879;23;20063;-92
2021/12/15 10:41:56;;;;;;;93.68;51.63;;;;;;;4.06;100.00;101868.75;6244040;23;20043;-91
2021/12/15 10:44:29;;;;;;;93.45;52.75;;;;;;;3.98;100.00;101860.47;6242078;23;20032;-90
2021/12/15 10:47:39;;;;;;;95.32;53.55;;;;;;;3.92;100.00;101866.06;6243296;23;20012;-92
2021/12/15 10:50:20;;;;;;;91.47;51.83;;;;;;;3.92;100.00;101859.06;6269814;23;20019;-92
2021/12/15 10:53:00;;;;;;;90.30;52.72;;;;;;;4.06;100.00;101859.13;6219929;23;20007;-89
2021/12/15 10:55:35;;;;;;;96.75;52.58;;;;;;;4.28;100.00;101858.72;6243615;23;20017;-91
2021/12/15 10:58:22;;;;;;;88.60;50.58;;;;;;;4.18;100.00;101863.66;6215436;23;20043;-89
2021/12/15 11:00:48;;;;;;;87.30;49.83;;;;;;;4.10;100.00;101862.41;6215204;23;20032;-92
2021/12/15 11:03:44;;;;;;;88.85;50.67;;;;;;;4.02;100.00;101867.25;6220862;23;20022;-93
2021/12/15 11:06:21;;;;;;;84.30;48.55;;;;;;;4.04;100.00;101862.78;6263252;23;20024;-92
2021/12/15 11:09:09;;;;;;;86.93;51.13;;;;;;;4.03;100.00;101869.78;6232926;23;20344;-92
2021/12/15 11:11:38;;;;;;;92.00;50.70;;;;;;;3.97;100.00;101856.19;6229459;23;20013;-91
2021/12/15 11:14:34;;;;;;;96.20;53.63;;;;;;;3.96;100.00;101862.34;6236997;23;20015;-90
2021/12/15 11:17:34;;;;;;;89.95;53.53;;;;;;;3.96;100.00;101862.34;6181515;23;20444;-85
2021/12/15 11:20:06;;;;;;;93.97;51.90;;;;;;;3.99;100.00;101864.78;6195645;23;20100;-87
2021/12/15 11:22:45;;;;;;;87.18;52.22;;;;;;;4.04;100.00;101862.78;6196480;23;20470;-87
2021/12/15 11:25:28;;;;;;;87.03;52.85;;;;;;;4.11;100.00;101854.44;6192557;23;20059;-86
2021/12/15 11:27:56;;;;;;;;;;;;;;;4.16;100.00;101851.56;6218267;23;20009;-88
2021/12/15 11:30:30;;;;;;;95.47;52.90;;;;;;;4.21;100.00;101849.50;6220747;23;19958;-88
2021/12/15 11:33:03;;;;;;;95.25;52.85;;;;;;;4.24;100.00;101857.22;6191094;23;20031;-87
2021/12/15 11:35:51;;;;;;;89.78;53.88;;;;;;;4.23;100.00;101850.28;6192848;23;20008;-88
2021/12/15 11:38:32;;;;;;;101.85;54.97;;;;;;;4.25;100.00;101842.31;6214149;23;20021;-88
2021/12/15 11:41:18;;;;;;;92.45;55.35;;;;;;;4.31;100.00;101848.03;6200754;23;20016;-88
2021/12/15 11:44:03;;;;;;;96.70;56.22;;;;;;;4.40;100.00;101844.03;6207491;23;20057;-89
2021/12/15 11:46:33;;;;;;;90.68;55.38;;;;;;;4.40;100.00;101846.66;6180667;23;20032;-91
2021/12/15 11:49:13;;;;;;;97.63;55.75;;;;;;;4.44;100.00;101845.56;6174511;23;20028;-87
2021/12/15 11:51:44;;;;;;;92.07;55.08;;;;;;;4.49;100.00;101846.97;6208268;23;20008;-87
2021/12/15 11:54:23;;;;;;;91.65;51.70;;;;;;;4.54;100.00;101851.97;6207570;23;20024;-88
2021/12/15 11:57:10;;;;;;;93.13;53.72;;;;;;;4.48;100.00;101845.28;6226914;23;20012;-90
2021/12/15 11:59:38;;;;;;;91.18;53.92;;;;;;;4.51;100.00;101845.09;6221665;23;20013;-88
2021/12/15 12:02:31;;;;;;;93.28;54.53;;;;;;;4.49;100.00;101844.34;6222071;23;20016;-87
2021/12/15 12:05:01;;;;;;;98.67;54.00;;;;;;;4.50;100.00;101845.19;6225538;23;20394;-90
2021/12/15 12:07:32;;;;;;;97.22;53.22;;;;;;;4.53;100.00;101848.47;6206541;23;20009;-90
2021/12/15 12:13:41;;;;;;;88.40;53.53;;;;;;;4.56;100.00;101834.31;6286939;22;20019;-92
2021/12/15 12:16:08;;;;;;;88.45;53.35;;;;;;;4.53;100.00;101840.59;6054086;23;20019;-91
2021/12/15 12:18:43;;;;;;;94.13;53.42;;;;;;;4.61;100.00;101835.72;6049370;23;20023;-91
2021/12/15 12:21:31;;;;;;;93.28;53.97;;;;;;;4.58;100.00;101835.91;6048770;23;20027;-91
2021/12/15 12:23:57;;;;;;;90.13;53.22;;;;;;;4.56;100.00;101832.53;6048789;23;20061;-91
2021/12/15 12:26:31;;;;;;;93.55;53.95;;;;;;;4.53;100.00;101830.09;6190172;22;20039;-91
2021/12/15 12:29:01;;;;;;;101.63;55.05;;;;;;;4.52;100.00;101825.78;6237224;22;20091;-93
2021/12/15 12:31:30;;;;;;;94.78;56.28;;;;;;;4.57;100.00;101831.59;6265975;22;20012;-92
2021/12/15 12:33:57;;;;;;;93.68;53.78;;;;;;;4.73;100.00;101835.94;6236072;22;20455;-91
2021/12/15 12:36:33;;;;;;;89.13;53.08;;;;;;;4.65;100.00;101834.63;6286430;22;20016;-92
2021/12/15 12:39:13;;;;;;;88.75;52.95;;;;;;;4.76;100.00;101833.13;6240942;22;20027;-91
2021/12/15 12:41:49;;;;;;;105.55;54.95;;;;;;;4.80;100.00;101824.13;6287395;22;20020;-90
2021/12/15 12:44:15;;;;;;;96.07;55.03;;;;;;;4.79;100.00;101825.06;6234404;22;20011;-89
2021/12/15 12:46:54;;;;;;;99.45;56.10;;;;;;;4.72;100.00;101826.34;6263171;22;20038;-89
2021/12/15 13:01:01;;;;;;;94.60;54.42;;;;;;;4.90;100.00;101818.22;6291719;22;20015;-94
2021/12/15 13:03:36;;;;;;;87.68;52.83;;;;;;;4.84;100.00;101817.75;6267315;22;20012;-91
2021/12/15 13:06:06;;;;;;;96.90;57.00;;;;;;;4.75;100.00;101824.41;6260130;22;20019;-91
2021/12/15 13:08:40;;;;;;;97.25;55.70;;;;;;;4.78;100.00;101821.56;6284107;22;20016;-92
2021/12/15 13:11:33;;;;;;;94.65;54.83;;;;;;;4.81;100.00;101820.53;6287681;22;20389;-92